createdAt,value
2022-09-13T00:00:30.391Z,13.96
2022-09-13T00:02:56.514Z,13.96
2022-09-13T00:05:22.662Z,13.90
2022-09-13T00:07:48.776Z,13.87
2022-09-13T00:10:14.914Z,13.87
2022-09-13T00:12:41.092Z,13.87
2022-09-13T00:15:07.211Z,13.90
2022-09-13T00:17:33.382Z,13.90
2022-09-13T00:19:59.487Z,13.88
2022-09-13T00:22:27.729Z,13.86
2022-09-13T00:24:54.287Z,13.78
2022-09-13T00:27:20.418Z,13.79
2022-09-13T00:29:48.284Z,13.79
2022-09-13T00:32:14.441Z,13.83
2022-09-13T00:34:40.548Z,13.79
2022-09-13T00:37:06.673Z,13.78
2022-09-13T00:39:32.778Z,13.74
2022-09-13T00:41:58.899Z,13.77
2022-09-13T00:44:25.028Z,13.77
2022-09-13T00:46:51.134Z,13.76
2022-09-13T00:49:17.238Z,13.69
2022-09-13T00:51:43.389Z,13.73
2022-09-13T00:54:09.580Z,13.72
2022-09-13T00:56:35.708Z,13.68
2022-09-13T00:59:01.832Z,13.64
2022-09-13T01:01:27.987Z,13.58
2022-09-13T01:03:54.159Z,13.53
2022-09-13T01:06:20.279Z,13.48
2022-09-13T01:08:46.392Z,13.53
2022-09-13T01:11:12.544Z,13.47
2022-09-13T01:13:38.672Z,13.48
2022-09-13T01:16:04.819Z,13.41
2022-09-13T01:18:30.973Z,13.37
2022-09-13T01:20:57.087Z,13.32
2022-09-13T01:23:23.214Z,13.31
2022-09-13T01:25:49.347Z,13.27
2022-09-13T01:28:15.482Z,13.31
2022-09-13T01:30:41.626Z,13.24
2022-09-13T01:33:07.740Z,13.21
2022-09-13T01:35:33.882Z,13.18
2022-09-13T01:38:00.039Z,13.21
2022-09-13T01:40:26.163Z,13.16
2022-09-13T01:42:52.276Z,13.17
2022-09-13T01:45:18.451Z,13.15
2022-09-13T01:47:44.587Z,13.12
2022-09-13T01:50:10.760Z,13.05
2022-09-13T01:52:37.133Z,13.05
2022-09-13T01:55:03.252Z,12.95
2022-09-13T01:57:29.361Z,12.96
2022-09-13T01:59:55.488Z,12.96
2022-09-13T02:02:21.632Z,12.93
2022-09-13T02:04:47.817Z,12.89
2022-09-13T02:07:13.945Z,12.87
2022-09-13T02:09:40.087Z,12.85
2022-09-13T02:12:06.208Z,12.89
2022-09-13T02:14:32.349Z,12.84
2022-09-13T02:16:58.454Z,12.80
2022-09-13T02:19:26.933Z,12.80
2022-09-13T02:21:53.100Z,12.77
2022-09-13T02:24:19.210Z,12.79
2022-09-13T02:26:45.358Z,12.74
2022-09-13T02:29:11.527Z,12.77
2022-09-13T02:31:37.728Z,12.75
2022-09-13T02:34:03.913Z,12.72
2022-09-13T02:36:30.026Z,12.69
2022-09-13T02:38:56.149Z,12.68
2022-09-13T02:41:22.259Z,12.66
2022-09-13T02:43:48.395Z,12.66
2022-09-13T02:46:14.506Z,12.63
2022-09-13T02:48:40.606Z,12.66
2022-09-13T02:53:57.612Z,12.69
2022-09-13T02:56:23.733Z,12.74
2022-09-13T02:58:49.887Z,12.78
2022-09-13T03:01:16.087Z,12.71
2022-09-13T03:03:42.249Z,12.76
2022-09-13T03:06:08.397Z,12.70
2022-09-13T03:08:34.542Z,12.70
2022-09-13T03:11:00.652Z,12.71
2022-09-13T03:13:26.770Z,12.73
2022-09-13T03:15:52.917Z,12.76
2022-09-13T03:18:19.040Z,12.69
2022-09-13T03:20:45.189Z,12.72
2022-09-13T03:23:11.301Z,12.73
2022-09-13T03:25:37.424Z,12.72
2022-09-13T03:28:03.574Z,12.71
2022-09-13T03:30:29.714Z,12.72
2022-09-13T03:32:55.837Z,12.73
2022-09-13T03:35:24.815Z,12.73
2022-09-13T03:37:50.942Z,12.68
2022-09-13T03:40:17.083Z,12.64
2022-09-13T03:42:43.261Z,12.63
2022-09-13T03:45:09.394Z,12.59
2022-09-13T03:47:35.505Z,12.58
2022-09-13T03:50:01.611Z,12.58
2022-09-13T03:52:27.754Z,12.58
2022-09-13T03:54:53.860Z,12.57
2022-09-13T03:57:19.989Z,12.57
2022-09-13T03:59:46.130Z,12.60
2022-09-13T04:02:12.297Z,12.61
2022-09-13T04:04:38.464Z,12.68
2022-09-13T04:07:04.578Z,12.75
2022-09-13T04:09:30.679Z,12.81
2022-09-13T04:11:56.861Z,12.83
2022-09-13T04:14:22.953Z,12.81
2022-09-13T04:16:49.129Z,12.85
2022-09-13T04:19:15.341Z,12.87
2022-09-13T04:21:41.510Z,12.87
2022-09-13T04:24:07.663Z,12.89
2022-09-13T04:26:33.793Z,12.89
2022-09-13T04:28:59.932Z,12.93
2022-09-13T04:31:26.114Z,12.97
2022-09-13T04:33:55.046Z,12.95
2022-09-13T04:36:21.156Z,12.96
2022-09-13T04:38:47.312Z,12.97
2022-09-13T04:41:13.461Z,12.99
2022-09-13T04:43:39.581Z,13.00
2022-09-13T04:46:05.723Z,13.01
2022-09-13T04:48:31.895Z,12.99
2022-09-13T04:50:58.040Z,13.04
2022-09-13T04:53:24.183Z,13.03
2022-09-13T04:55:50.295Z,13.03
2022-09-13T04:58:16.417Z,13.06
2022-09-13T05:00:42.604Z,13.10
2022-09-13T05:03:08.743Z,13.15
2022-09-13T05:05:34.859Z,13.14
2022-09-13T05:08:00.976Z,13.19
2022-09-13T05:10:27.125Z,13.18
2022-09-13T05:12:53.225Z,13.22
2022-09-13T05:15:19.366Z,13.26
2022-09-13T05:17:45.484Z,13.31
2022-09-13T05:20:11.616Z,13.35
2022-09-13T05:22:37.730Z,13.39
2022-09-13T05:25:06.199Z,13.43
2022-09-13T05:27:32.305Z,13.43
2022-09-13T05:29:58.452Z,13.48
2022-09-13T05:32:24.602Z,13.50
2022-09-13T05:34:50.758Z,13.51
2022-09-13T05:37:16.901Z,13.52
2022-09-13T05:40:09.822Z,13.51
2022-09-13T05:42:29.122Z,13.50
2022-09-13T05:44:55.258Z,13.51
2022-09-13T05:47:21.406Z,13.57
2022-09-13T05:50:08.797Z,13.63
2022-09-13T05:52:33.709Z,13.68
2022-09-13T05:54:59.818Z,13.77
2022-09-13T05:57:25.952Z,13.81
2022-09-13T06:02:42.809Z,13.98
2022-09-13T06:05:08.945Z,14.09
2022-09-13T06:07:35.091Z,14.22
2022-09-13T06:10:01.221Z,14.34
2022-09-13T06:12:30.390Z,14.46
2022-09-13T06:14:56.508Z,14.60
2022-09-13T06:17:22.660Z,14.73
2022-09-13T06:19:48.786Z,14.84
2022-09-13T06:22:14.892Z,15.02
2022-09-13T06:24:41.030Z,15.11
2022-09-13T06:27:07.161Z,15.18
2022-09-13T06:29:33.280Z,15.25
2022-09-13T06:31:59.445Z,15.31
2022-09-13T06:34:30.532Z,15.36
2022-09-13T06:36:57.310Z,15.42
2022-09-13T06:39:23.442Z,15.48
2022-09-13T06:41:49.579Z,15.50
2022-09-13T06:44:15.690Z,15.55
2022-09-13T06:46:41.894Z,15.58
2022-09-13T06:49:08.097Z,15.60
2022-09-13T06:51:43.459Z,15.64
2022-09-13T06:54:09.590Z,15.69
2022-09-13T06:56:35.733Z,15.73
2022-09-13T06:59:01.878Z,15.79
2022-09-13T07:01:28.155Z,15.84
2022-09-13T07:03:54.424Z,15.89
2022-09-13T07:06:22.610Z,15.94
2022-09-13T07:08:49.095Z,16.03
2022-09-13T07:11:15.327Z,16.09
2022-09-13T07:13:41.472Z,16.13
2022-09-13T07:16:07.608Z,16.19
2022-09-13T07:18:33.779Z,16.25
2022-09-13T07:20:59.904Z,16.37
2022-09-13T07:23:26.050Z,16.50
2022-09-13T07:25:52.163Z,16.55
2022-09-13T07:28:20.291Z,16.58
2022-09-13T07:30:48.475Z,16.72
2022-09-13T07:33:14.673Z,16.84
2022-09-13T07:35:40.793Z,16.94
2022-09-13T07:38:06.902Z,17.08
2022-09-13T07:40:33.054Z,17.18
2022-09-13T07:42:59.231Z,17.31
2022-09-13T07:45:25.343Z,17.45
2022-09-13T07:47:51.455Z,17.56
2022-09-13T07:50:17.602Z,17.75
2022-09-13T07:52:43.721Z,18.00
2022-09-13T07:55:09.817Z,18.14
2022-09-13T07:57:35.942Z,18.32
2022-09-13T08:00:02.074Z,18.39
2022-09-13T08:02:28.227Z,18.44
2022-09-13T08:04:54.345Z,18.45
2022-09-13T08:07:20.500Z,18.46
2022-09-13T08:09:46.618Z,18.45
2022-09-13T08:12:12.751Z,18.46
2022-09-13T08:14:38.900Z,18.48
2022-09-13T08:17:05.032Z,18.48
2022-09-13T08:19:31.175Z,18.53
2022-09-13T08:21:57.292Z,18.59
2022-09-13T08:24:23.423Z,18.66
2022-09-13T08:26:49.593Z,18.74
2022-09-13T08:29:15.725Z,18.76
2022-09-13T08:31:41.841Z,18.80
2022-09-13T08:34:07.976Z,18.92
2022-09-13T08:36:34.109Z,19.14
2022-09-13T08:39:00.306Z,19.39
2022-09-13T08:41:26.480Z,19.81
2022-09-13T08:43:52.643Z,20.31
2022-09-13T08:46:18.801Z,20.51
2022-09-13T08:48:44.946Z,20.42
2022-09-13T08:51:11.089Z,20.30
2022-09-13T08:53:37.221Z,20.17
2022-09-13T08:56:03.395Z,20.27
2022-09-13T08:58:29.496Z,20.60
2022-09-13T09:00:55.633Z,21.13
2022-09-13T09:03:21.782Z,21.33
2022-09-13T09:05:47.943Z,21.20
2022-09-13T09:08:14.115Z,21.15
2022-09-13T09:10:40.245Z,21.09
2022-09-13T09:13:06.405Z,21.01
2022-09-13T09:15:32.581Z,20.99
2022-09-13T09:17:59.904Z,21.05
2022-09-13T09:20:26.057Z,21.37
2022-09-13T09:22:52.288Z,21.76
2022-09-13T09:25:18.425Z,22.27
2022-09-13T09:27:44.566Z,22.61
2022-09-13T09:30:10.735Z,22.55
2022-09-13T09:32:36.855Z,22.34
2022-09-13T09:35:03.014Z,22.21
2022-09-13T09:37:29.120Z,22.05
2022-09-13T09:39:55.280Z,22.34
2022-09-13T09:42:21.495Z,22.52
2022-09-13T09:44:47.605Z,22.68
2022-09-13T09:47:13.726Z,22.73
2022-09-13T09:49:39.887Z,22.82
2022-09-13T09:52:06.008Z,22.78
2022-09-13T09:54:32.110Z,22.78
2022-09-13T09:56:58.284Z,22.68
2022-09-13T09:59:24.436Z,22.77
2022-09-13T10:01:50.606Z,22.98
2022-09-13T10:04:16.837Z,23.13
2022-09-13T10:06:42.969Z,23.27
2022-09-13T10:09:09.095Z,23.41
2022-09-13T10:11:35.239Z,23.46
2022-09-13T10:14:01.362Z,23.42
2022-09-13T10:16:27.541Z,23.29
2022-09-13T10:18:53.713Z,23.13
2022-09-13T10:21:19.823Z,23.07
2022-09-13T10:23:45.959Z,23.03
2022-09-13T10:26:12.088Z,23.01
2022-09-13T10:28:38.238Z,23.13
2022-09-13T10:31:04.405Z,23.01
2022-09-13T10:33:30.552Z,23.10
2022-09-13T10:35:56.662Z,23.27
2022-09-13T10:38:30.163Z,23.26
2022-09-13T10:40:56.343Z,23.36
2022-09-13T10:43:22.478Z,23.48
2022-09-13T10:45:48.707Z,23.75
2022-09-13T10:48:14.863Z,23.57
2022-09-13T10:50:41.005Z,23.48
2022-09-13T10:53:07.184Z,23.37
2022-09-13T10:55:33.334Z,23.45
2022-09-13T10:57:59.468Z,23.43
2022-09-13T11:00:25.602Z,23.41
2022-09-13T11:02:51.721Z,23.39
2022-09-13T11:05:17.870Z,23.47
2022-09-13T11:07:44.089Z,23.47
2022-09-13T11:10:19.273Z,23.41
2022-09-13T11:15:35.825Z,23.33
2022-09-13T11:18:09.426Z,23.23
2022-09-13T11:20:35.585Z,23.06
2022-09-13T11:23:01.695Z,23.03
2022-09-13T11:25:27.849Z,22.91
2022-09-13T11:27:54.003Z,22.87
2022-09-13T11:30:27.797Z,22.91
2022-09-13T11:32:55.920Z,22.93
2022-09-13T11:35:22.035Z,23.01
2022-09-13T11:37:48.188Z,23.11
2022-09-13T11:40:14.353Z,23.25
2022-09-13T11:42:40.490Z,23.39
2022-09-13T11:45:06.597Z,23.43
2022-09-13T11:47:32.748Z,23.48
2022-09-13T11:49:58.862Z,23.46
2022-09-13T11:52:25.022Z,23.42
2022-09-13T11:54:51.163Z,23.49
2022-09-13T11:57:17.293Z,23.54
2022-09-13T11:59:43.452Z,23.66
2022-09-13T12:02:09.663Z,23.80
2022-09-13T12:04:35.912Z,23.97
2022-09-13T12:07:02.049Z,24.17
2022-09-13T12:09:28.243Z,24.23
2022-09-13T12:11:54.351Z,24.27
2022-09-13T12:14:29.738Z,24.30
2022-09-13T12:16:55.904Z,24.40
2022-09-13T12:19:22.013Z,24.47
2022-09-13T12:21:48.153Z,24.59
2022-09-13T12:24:14.290Z,24.70
2022-09-13T12:26:40.444Z,24.71
2022-09-13T12:29:06.552Z,24.74
2022-09-13T12:33:58.926Z,24.56
2022-09-13T12:36:25.078Z,24.41
2022-09-13T12:38:51.210Z,24.24
2022-09-13T12:41:17.338Z,24.07
2022-09-13T12:43:43.483Z,24.02
2022-09-13T12:46:09.658Z,23.97
2022-09-13T12:48:35.853Z,24.02
2022-09-13T12:51:01.976Z,24.08
2022-09-13T12:53:28.116Z,24.12
2022-09-13T12:55:54.255Z,24.10
2022-09-13T12:58:20.715Z,24.12
2022-09-13T13:00:46.872Z,24.05
2022-09-13T13:03:13.066Z,24.00
2022-09-13T13:05:39.209Z,23.96
2022-09-13T13:08:05.339Z,23.91
2022-09-13T13:10:31.500Z,23.97
2022-09-13T13:12:57.630Z,24.13
2022-09-13T13:15:23.816Z,24.22
2022-09-13T13:17:49.950Z,24.36
2022-09-13T13:20:16.270Z,24.55
2022-09-13T13:22:42.439Z,24.84
2022-09-13T13:25:08.574Z,25.07
2022-09-13T13:27:34.695Z,25.27
2022-09-13T13:30:00.875Z,25.41
2022-09-13T13:32:26.997Z,25.48
2022-09-13T13:34:53.109Z,25.58
2022-09-13T13:37:19.234Z,25.76
2022-09-13T13:39:45.450Z,25.85
2022-09-13T13:42:11.580Z,25.95
2022-09-13T13:44:37.783Z,25.95
2022-09-13T13:47:03.946Z,25.77
2022-09-13T13:49:30.111Z,25.70
2022-09-13T13:51:56.235Z,25.58
2022-09-13T13:54:22.393Z,25.43
2022-09-13T13:56:48.543Z,25.37
2022-09-13T13:59:14.687Z,25.32
2022-09-13T14:01:40.840Z,25.25
2022-09-13T14:04:06.981Z,25.17
2022-09-13T14:06:33.127Z,25.07
2022-09-13T14:11:25.557Z,25.00
2022-09-13T14:13:51.794Z,25.09
2022-09-13T14:19:07.980Z,25.17
2022-09-13T14:21:34.146Z,25.23
2022-09-13T14:24:00.276Z,25.25
2022-09-13T14:26:26.391Z,25.24
2022-09-13T14:28:52.560Z,25.27
2022-09-13T14:31:18.848Z,25.25
2022-09-13T14:33:45.038Z,25.23
2022-09-13T14:36:11.179Z,25.17
2022-09-13T14:38:37.366Z,25.16
2022-09-13T14:41:03.550Z,25.16
2022-09-13T14:43:29.695Z,25.17
2022-09-13T14:45:55.882Z,25.17
2022-09-13T14:48:22.020Z,25.27
2022-09-13T14:50:48.137Z,25.27
2022-09-13T14:53:14.260Z,25.29
2022-09-13T14:55:47.766Z,25.27
2022-09-13T14:58:15.067Z,25.20
2022-09-13T15:00:41.248Z,25.13
2022-09-13T15:03:07.443Z,25.14
2022-09-13T15:05:33.602Z,25.08
2022-09-13T15:07:59.748Z,25.07
2022-09-13T15:10:25.927Z,25.04
2022-09-13T15:12:52.041Z,25.04
2022-09-13T15:15:18.154Z,25.01
2022-09-13T15:17:44.322Z,25.03
2022-09-13T15:20:10.436Z,25.05
2022-09-13T15:22:36.579Z,25.10
2022-09-13T15:25:02.724Z,25.03
2022-09-13T15:27:28.904Z,25.03
2022-09-13T15:29:55.087Z,25.05
2022-09-13T15:32:21.248Z,25.04
2022-09-13T15:34:51.122Z,25.06
2022-09-13T15:37:17.245Z,25.19
2022-09-13T15:50:13.690Z,25.47
2022-09-13T15:52:39.823Z,25.58
2022-09-13T15:55:05.952Z,25.63
2022-09-13T15:57:32.104Z,25.53
2022-09-13T16:00:01.514Z,25.52
2022-09-13T16:02:30.411Z,25.40
2022-09-13T16:04:56.596Z,25.32
2022-09-13T16:07:22.713Z,25.22
2022-09-13T16:09:48.852Z,25.15
2022-09-13T16:12:15.053Z,25.02
2022-09-13T16:14:41.198Z,24.91
2022-09-13T16:17:07.318Z,24.78
2022-09-13T16:19:33.497Z,24.67
2022-09-13T16:21:59.615Z,24.53
2022-09-13T16:24:25.725Z,24.43
2022-09-13T16:26:51.875Z,24.33
2022-09-13T16:29:17.995Z,24.23
2022-09-13T16:31:44.204Z,24.18
2022-09-13T16:34:10.412Z,24.14
2022-09-13T16:36:36.545Z,24.09
2022-09-13T16:39:02.725Z,24.00
2022-09-13T16:41:28.859Z,23.97
2022-09-13T16:43:54.970Z,23.92
2022-09-13T16:46:21.167Z,23.90
2022-09-13T16:48:47.330Z,23.86
2022-09-13T16:51:13.460Z,23.82
2022-09-13T16:53:39.825Z,23.79
2022-09-13T16:56:06.927Z,23.77
2022-09-13T16:58:33.208Z,23.72
2022-09-13T17:00:59.355Z,23.69
2022-09-13T17:03:25.476Z,23.68
2022-09-13T17:05:51.938Z,23.62
2022-09-13T17:08:18.082Z,23.58
2022-09-13T17:10:44.199Z,23.58
2022-09-13T17:13:10.338Z,23.51
2022-09-13T17:15:36.503Z,23.45
2022-09-13T17:18:02.665Z,23.39
2022-09-13T17:20:28.814Z,23.32
2022-09-13T17:22:54.969Z,23.27
2022-09-13T17:25:21.097Z,23.21
2022-09-13T17:27:47.221Z,23.11
2022-09-13T17:30:13.371Z,23.05
2022-09-13T17:32:39.507Z,22.98
2022-09-13T17:35:05.605Z,22.94
2022-09-13T17:37:31.789Z,22.91
2022-09-13T17:39:57.999Z,22.87
2022-09-13T17:42:24.173Z,22.87
2022-09-13T17:47:41.056Z,22.89
2022-09-13T17:50:09.970Z,22.83
2022-09-13T17:52:36.105Z,22.81
2022-09-13T17:55:02.258Z,22.74
2022-09-13T17:57:30.756Z,22.67
2022-09-13T17:59:56.907Z,22.61
2022-09-13T18:02:23.102Z,22.57
2022-09-13T18:04:49.302Z,22.51
2022-09-13T18:07:15.434Z,22.47
2022-09-13T18:09:41.585Z,22.40
2022-09-13T18:12:07.794Z,22.34
2022-09-13T18:14:33.955Z,22.27
2022-09-13T18:17:00.071Z,22.22
2022-09-13T18:19:44.673Z,22.18
2022-09-13T18:22:11.829Z,22.11
2022-09-13T18:24:37.989Z,22.08
2022-09-13T18:27:04.140Z,22.01
2022-09-13T18:29:30.470Z,21.93
2022-09-13T18:31:56.592Z,21.87
2022-09-13T18:34:25.806Z,21.80
2022-09-13T18:36:53.793Z,21.75
2022-09-13T18:39:19.940Z,21.71
2022-09-13T18:41:46.057Z,21.67
2022-09-13T18:44:12.238Z,21.60
2022-09-13T18:46:38.566Z,21.52
2022-09-13T18:49:04.763Z,21.47
2022-09-13T18:51:30.911Z,21.43
2022-09-13T18:53:57.133Z,21.38
2022-09-13T18:56:23.241Z,21.31
2022-09-13T18:58:49.450Z,21.24
2022-09-13T19:01:15.803Z,21.17
2022-09-13T19:03:42.134Z,21.11
2022-09-13T19:06:08.351Z,21.06
2022-09-13T19:08:34.515Z,21.06
2022-09-13T19:11:00.655Z,21.06
2022-09-13T19:13:26.839Z,21.10
2022-09-13T19:15:53.006Z,21.10
2022-09-13T19:18:19.227Z,21.11
2022-09-13T19:20:45.403Z,21.13
2022-09-13T19:23:11.518Z,21.07
2022-09-13T19:25:37.671Z,21.08
2022-09-13T19:28:03.814Z,21.03
2022-09-13T19:30:29.948Z,21.00
2022-09-13T19:32:56.105Z,20.96
2022-09-13T19:35:22.309Z,20.92
2022-09-13T19:37:48.491Z,20.88
2022-09-13T19:40:14.652Z,20.88
2022-09-13T19:42:40.834Z,20.85
2022-09-13T19:45:07.012Z,20.82
2022-09-13T19:50:19.278Z,20.77
2022-09-13T19:52:45.407Z,20.77
2022-09-13T19:55:11.586Z,20.75
2022-09-13T19:57:39.984Z,20.74
2022-09-13T20:00:09.203Z,20.71
2022-09-13T20:02:35.415Z,20.66
2022-09-13T20:05:03.449Z,20.64
2022-09-13T20:07:29.623Z,20.56
2022-09-13T20:09:55.748Z,20.52
2022-09-13T20:12:23.112Z,20.48
2022-09-13T20:14:49.243Z,20.43
2022-09-13T20:17:15.388Z,20.39
2022-09-13T20:19:46.191Z,20.36
2022-09-13T20:24:59.343Z,20.28
2022-09-13T20:27:30.760Z,20.28
2022-09-13T20:29:57.125Z,20.30
2022-09-13T20:32:23.447Z,20.29
2022-09-13T20:34:49.580Z,20.30
2022-09-13T20:37:15.715Z,20.27
2022-09-13T20:39:41.948Z,20.23
2022-09-13T20:42:08.100Z,20.18
2022-09-13T20:44:34.267Z,20.12
2022-09-13T20:47:00.395Z,20.09
2022-09-13T20:49:26.526Z,20.04
2022-09-13T20:51:52.663Z,20.02
2022-09-13T20:54:18.821Z,19.96
2022-09-13T20:56:45.025Z,19.92
2022-09-13T20:59:11.144Z,19.90
2022-09-13T21:01:37.296Z,19.92
2022-09-13T21:04:03.507Z,19.90
2022-09-13T21:06:29.654Z,19.92
2022-09-13T21:08:55.799Z,19.95
2022-09-13T21:11:21.944Z,19.97
2022-09-13T21:13:48.102Z,19.99
2022-09-13T21:16:14.227Z,20.02
2022-09-13T21:18:40.596Z,20.02
2022-09-13T21:21:07.114Z,20.02
2022-09-13T21:23:33.260Z,19.98
2022-09-13T21:25:59.403Z,19.97
2022-09-13T21:28:25.504Z,19.93
2022-09-13T21:30:51.671Z,19.87
2022-09-13T21:33:17.840Z,19.86
2022-09-13T21:35:43.965Z,19.84
2022-09-13T21:38:10.159Z,19.79
2022-09-13T21:40:36.266Z,19.78
2022-09-13T21:43:02.406Z,19.75
2022-09-13T21:45:28.533Z,19.77
2022-09-13T21:47:54.680Z,19.79
2022-09-13T21:50:20.796Z,19.81
2022-09-13T21:52:46.981Z,19.77
2022-09-13T21:55:13.105Z,19.75
2022-09-13T21:57:39.236Z,19.69
2022-09-13T22:00:05.514Z,19.67
2022-09-13T22:02:31.812Z,19.66
2022-09-13T22:04:58.054Z,19.64
2022-09-13T22:07:24.200Z,19.63
2022-09-13T22:09:51.758Z,19.60
2022-09-13T22:12:17.916Z,19.55
2022-09-13T22:14:44.298Z,19.57
2022-09-13T22:17:10.472Z,19.56
2022-09-13T22:19:36.622Z,19.55
2022-09-13T22:22:02.752Z,19.54
2022-09-13T22:24:28.941Z,19.50
2022-09-13T22:26:55.062Z,19.48
2022-09-13T22:29:21.213Z,19.51
2022-09-13T22:31:47.335Z,19.50
2022-09-13T22:34:13.482Z,19.51
2022-09-13T22:36:39.582Z,19.51
2022-09-13T22:39:05.704Z,19.52
2022-09-13T22:41:31.848Z,19.47
2022-09-13T22:43:57.952Z,19.47
2022-09-13T22:46:24.167Z,19.49
2022-09-13T22:48:50.422Z,19.53
2022-09-13T22:51:16.657Z,19.49
2022-09-13T22:53:42.779Z,19.47
2022-09-13T22:56:08.904Z,19.44
2022-09-13T22:58:35.048Z,19.45
2022-09-13T23:01:01.187Z,19.41
2022-09-13T23:03:27.414Z,19.39
2022-09-13T23:05:53.622Z,19.35
2022-09-13T23:08:19.746Z,19.30
2022-09-13T23:10:45.893Z,19.29
2022-09-13T23:13:12.068Z,19.25
2022-09-13T23:15:38.213Z,19.25
2022-09-13T23:18:04.329Z,19.22
2022-09-13T23:20:30.484Z,19.21
2022-09-13T23:22:56.609Z,19.20
2022-09-13T23:25:22.788Z,19.18
2022-09-13T23:27:48.912Z,19.17
2022-09-13T23:30:15.039Z,19.17
2022-09-13T23:32:41.175Z,19.16
2022-09-13T23:35:07.322Z,19.14
2022-09-13T23:37:33.452Z,19.17
2022-09-13T23:39:59.660Z,19.16
2022-09-13T23:42:25.837Z,19.13
2022-09-13T23:44:51.989Z,19.13
2022-09-13T23:47:18.121Z,19.11
2022-09-13T23:49:44.242Z,19.15
2022-09-13T23:52:10.393Z,19.24
2022-09-13T23:54:36.551Z,19.18
2022-09-13T23:57:02.675Z,19.13
2022-09-13T23:59:30.444Z,19.08
